sensor_id;sensor_type;location;lat;lon;timestamp;temperature;humidity
22167;DHT22;11249;52.468;13.776;2022-12-01T00:01:12;1.70;99.90
22167;DHT22;11249;52.468;13.776;2022-12-01T00:03:39;1.60;99.90
22167;DHT22;11249;52.468;13.776;2022-12-01T00:06:09;1.60;99.90
22167;DHT22;11249;52.468;13.776;2022-12-01T00:08:36;1.70;99.90
22167;DHT22;11249;52.468;13.776;2022-12-01T00:11:10;1.70;99.90
22167;DHT22;11249;52.468;13.776;2022-12-01T00:13:37;1.70;99.90
22167;DHT22;11249;52.468;13.776;2022-12-01T00:16:12;1.60;99.90
22167;DHT22;11249;52.468;13.776;2022-12-01T00:18:39;1.60;99.90
22167;DHT22;11249;52.468;13.776;2022-12-01T00:21:12;1.60;99.90
22167;DHT22;11249;52.468;13.776;2022-12-01T00:23:42;1.60;99.90
22167;DHT22;11249;52.468;13.776;2022-12-01T00:26:09;1.50;99.90
22167;DHT22;11249;52.468;13.776;2022-12-01T00:28:36;1.60;99.90
22167;DHT22;11249;52.468;13.776;2022-12-01T00:31:09;1.60;99.90
22167;DHT22;11249;52.468;13.776;2022-12-01T00:33:37;1.60;99.90
22167;DHT22;11249;52.468;13.776;2022-12-01T00:36:04;1.60;99.90
22167;DHT22;11249;52.468;13.776;2022-12-01T00:38:31;1.70;99.90
22167;DHT22;11249;52.468;13.776;2022-12-01T00:40:58;1.70;99.90
22167;DHT22;11249;52.468;13.776;2022-12-01T00:43:25;1.70;99.90
22167;DHT22;11249;52.468;13.776;2022-12-01T00:45:52;1.60;99.90
22167;DHT22;11249;52.468;13.776;2022-12-01T00:48:20;1.60;99.90
22167;DHT22;11249;52.468;13.776;2022-12-01T00:50:50;1.60;99.90
22167;DHT22;11249;52.468;13.776;2022-12-01T00:53:17;1.60;99.90
22167;DHT22;11249;52.468;13.776;2022-12-01T00:55:44;1.60;99.90
22167;DHT22;11249;52.468;13.776;2022-12-01T00:58:11;1.60;99.90
22167;DHT22;11249;52.468;13.776;2022-12-01T01:00:38;1.60;99.90
22167;DHT22;11249;52.468;13.776;2022-12-01T01:03:05;1.60;99.90
22167;DHT22;11249;52.468;13.776;2022-12-01T01:05:39;1.60;99.90
22167;DHT22;11249;52.468;13.776;2022-12-01T01:08:07;1.60;99.90
22167;DHT22;11249;52.468;13.776;2022-12-01T01:10:38;1.60;99.90
22167;DHT22;11249;52.468;13.776;2022-12-01T01:13:04;1.60;99.90
22167;DHT22;11249;52.468;13.776;2022-12-01T01:15:31;1.60;99.90
22167;DHT22;11249;52.468;13.776;2022-12-01T01:17:59;1.60;99.90
22167;DHT22;11249;52.468;13.776;2022-12-01T01:20:26;1.60;99.90
22167;DHT22;11249;52.468;13.776;2022-12-01T01:22:52;1.60;99.90
22167;DHT22;11249;52.468;13.776;2022-12-01T01:25:19;1.60;99.90
22167;DHT22;11249;52.468;13.776;2022-12-01T01:27:45;1.60;99.90
22167;DHT22;11249;52.468;13.776;2022-12-01T01:30:13;1.70;99.90
22167;DHT22;11249;52.468;13.776;2022-12-01T01:32:39;1.60;99.90
22167;DHT22;11249;52.468;13.776;2022-12-01T01:35:06;1.50;99.90
22167;DHT22;11249;52.468;13.776;2022-12-01T01:37:33;1.50;99.90
22167;DHT22;11249;52.468;13.776;2022-12-01T01:40:00;1.50;99.90
22167;DHT22;11249;52.468;13.776;2022-12-01T01:42:27;1.50;99.90
22167;DHT22;11249;52.468;13.776;2022-12-01T01:44:57;1.50;99.90
22167;DHT22;11249;52.468;13.776;2022-12-01T01:47:33;1.50;99.90
22167;DHT22;11249;52.468;13.776;2022-12-01T01:50:04;1.50;99.90
22167;DHT22;11249;52.468;13.776;2022-12-01T01:52:35;1.40;99.90
22167;DHT22;11249;52.468;13.776;2022-12-01T01:55:04;1.40;99.90
22167;DHT22;11249;52.468;13.776;2022-12-01T01:57:32;1.40;99.90
22167;DHT22;11249;52.468;13.776;2022-12-01T02:00:06;1.40;99.90
22167;DHT22;11249;52.468;13.776;2022-12-01T02:02:38;1.40;99.90
22167;DHT22;11249;52.468;13.776;2022-12-01T02:05:08;1.40;99.90
22167;DHT22;11249;52.468;13.776;2022-12-01T02:07:37;1.40;99.90
22167;DHT22;11249;52.468;13.776;2022-12-01T02:10:06;1.40;99.90
22167;DHT22;11249;52.468;13.776;2022-12-01T02:13:02;1.40;99.90
22167;DHT22;11249;52.468;13.776;2022-12-01T02:15:41;1.30;99.90
22167;DHT22;11249;52.468;13.776;2022-12-01T02:18:25;1.30;99.90
22167;DHT22;11249;52.468;13.776;2022-12-01T02:21:27;1.30;99.90
22167;DHT22;11249;52.468;13.776;2022-12-01T02:26:49;1.40;99.90
22167;DHT22;11249;52.468;13.776;2022-12-01T02:32:48;1.40;99.90
22167;DHT22;11249;52.468;13.776;2022-12-01T02:35:08;1.40;99.90
22167;DHT22;11249;52.468;13.776;2022-12-01T02:37:58;1.40;99.90
22167;DHT22;11249;52.468;13.776;2022-12-01T02:40:32;1.40;99.90
22167;DHT22;11249;52.468;13.776;2022-12-01T02:43:28;1.40;99.90
22167;DHT22;11249;52.468;13.776;2022-12-01T02:48:51;1.50;99.90
22167;DHT22;11249;52.468;13.776;2022-12-01T02:51:20;1.50;99.90
22167;DHT22;11249;52.468;13.776;2022-12-01T02:53:48;1.40;99.90
22167;DHT22;11249;52.468;13.776;2022-12-01T02:56:20;1.40;99.90
22167;DHT22;11249;52.468;13.776;2022-12-01T02:58:47;1.40;99.90
22167;DHT22;11249;52.468;13.776;2022-12-01T03:01:42;1.40;99.90
22167;DHT22;11249;52.468;13.776;2022-12-01T03:13:42;1.30;99.90
22167;DHT22;11249;52.468;13.776;2022-12-01T03:16:24;1.30;99.90
22167;DHT22;11249;52.468;13.776;2022-12-01T03:18:56;1.30;99.90
22167;DHT22;11249;52.468;13.776;2022-12-01T03:21:37;1.30;99.90
22167;DHT22;11249;52.468;13.776;2022-12-01T03:24:14;1.30;99.90
22167;DHT22;11249;52.468;13.776;2022-12-01T03:26:45;1.40;99.90
22167;DHT22;11249;52.468;13.776;2022-12-01T03:29:41;1.40;99.90
22167;DHT22;11249;52.468;13.776;2022-12-01T03:32:16;1.40;99.90
22167;DHT22;11249;52.468;13.776;2022-12-01T03:37:58;1.40;99.90
22167;DHT22;11249;52.468;13.776;2022-12-01T03:40:27;1.40;99.90
22167;DHT22;11249;52.468;13.776;2022-12-01T03:42:59;1.40;99.90
22167;DHT22;11249;52.468;13.776;2022-12-01T03:45:34;1.40;99.90
22167;DHT22;11249;52.468;13.776;2022-12-01T03:48:02;1.30;99.90
22167;DHT22;11249;52.468;13.776;2022-12-01T03:50:36;1.30;99.90
22167;DHT22;11249;52.468;13.776;2022-12-01T03:53:13;1.30;99.90
22167;DHT22;11249;52.468;13.776;2022-12-01T03:55:50;1.30;99.90
22167;DHT22;11249;52.468;13.776;2022-12-01T03:58:21;1.30;99.90
22167;DHT22;11249;52.468;13.776;2022-12-01T04:00:51;1.20;99.90
22167;DHT22;11249;52.468;13.776;2022-12-01T04:03:23;1.10;99.90
22167;DHT22;11249;52.468;13.776;2022-12-01T04:05:50;1.00;99.90
22167;DHT22;11249;52.468;13.776;2022-12-01T04:08:17;1.00;99.90
22167;DHT22;11249;52.468;13.776;2022-12-01T04:10:44;1.10;99.90
22167;DHT22;11249;52.468;13.776;2022-12-01T04:13:11;1.00;99.90
22167;DHT22;11249;52.468;13.776;2022-12-01T04:15:52;1.00;99.90
22167;DHT22;11249;52.468;13.776;2022-12-01T04:18:20;1.10;99.90
22167;DHT22;11249;52.468;13.776;2022-12-01T04:20:48;1.00;99.90
22167;DHT22;11249;52.468;13.776;2022-12-01T04:23:15;1.00;99.90
22167;DHT22;11249;52.468;13.776;2022-12-01T04:26:03;1.00;99.90
22167;DHT22;11249;52.468;13.776;2022-12-01T04:28:30;1.00;99.90
22167;DHT22;11249;52.468;13.776;2022-12-01T04:30:56;1.00;99.90
22167;DHT22;11249;52.468;13.776;2022-12-01T04:33:23;1.00;99.90
22167;DHT22;11249;52.468;13.776;2022-12-01T04:35:58;1.00;99.90
22167;DHT22;11249;52.468;13.776;2022-12-01T04:38:25;1.10;99.90
22167;DHT22;11249;52.468;13.776;2022-12-01T04:40:56;1.10;99.90
22167;DHT22;11249;52.468;13.776;2022-12-01T04:43:23;1.10;99.90
22167;DHT22;11249;52.468;13.776;2022-12-01T04:45:50;1.10;99.90
22167;DHT22;11249;52.468;13.776;2022-12-01T04:48:16;1.10;99.90
22167;DHT22;11249;52.468;13.776;2022-12-01T04:50:43;1.10;99.90
22167;DHT22;11249;52.468;13.776;2022-12-01T04:53:10;1.10;99.90
22167;DHT22;11249;52.468;13.776;2022-12-01T04:55:37;1.10;99.90
22167;DHT22;11249;52.468;13.776;2022-12-01T04:58:04;1.10;99.90
22167;DHT22;11249;52.468;13.776;2022-12-01T05:00:32;1.10;99.90
22167;DHT22;11249;52.468;13.776;2022-12-01T05:02:59;1.20;99.90
22167;DHT22;11249;52.468;13.776;2022-12-01T05:05:26;1.10;99.90
22167;DHT22;11249;52.468;13.776;2022-12-01T05:07:53;1.10;99.90
22167;DHT22;11249;52.468;13.776;2022-12-01T05:10:20;1.10;99.90
22167;DHT22;11249;52.468;13.776;2022-12-01T05:12:47;1.10;99.90
22167;DHT22;11249;52.468;13.776;2022-12-01T05:15:14;1.10;99.90
22167;DHT22;11249;52.468;13.776;2022-12-01T05:17:41;1.10;99.90
22167;DHT22;11249;52.468;13.776;2022-12-01T05:20:13;1.10;99.90
22167;DHT22;11249;52.468;13.776;2022-12-01T05:23:02;1.10;99.90
22167;DHT22;11249;52.468;13.776;2022-12-01T05:25:31;1.20;99.90
22167;DHT22;11249;52.468;13.776;2022-12-01T05:27:58;1.20;99.90
22167;DHT22;11249;52.468;13.776;2022-12-01T05:30:25;1.20;99.90
22167;DHT22;11249;52.468;13.776;2022-12-01T05:32:54;1.20;99.90
22167;DHT22;11249;52.468;13.776;2022-12-01T05:35:21;1.20;99.90
22167;DHT22;11249;52.468;13.776;2022-12-01T05:37:47;1.20;99.90
22167;DHT22;11249;52.468;13.776;2022-12-01T05:40:14;1.20;99.90
22167;DHT22;11249;52.468;13.776;2022-12-01T05:42:41;1.20;99.90
22167;DHT22;11249;52.468;13.776;2022-12-01T05:45:08;1.20;99.90
22167;DHT22;11249;52.468;13.776;2022-12-01T05:47:35;1.20;99.90
22167;DHT22;11249;52.468;13.776;2022-12-01T05:50:01;1.20;99.90
22167;DHT22;11249;52.468;13.776;2022-12-01T05:52:33;1.20;99.90
22167;DHT22;11249;52.468;13.776;2022-12-01T05:55:02;1.20;99.90
22167;DHT22;11249;52.468;13.776;2022-12-01T05:57:29;1.20;99.90
22167;DHT22;11249;52.468;13.776;2022-12-01T05:59:56;1.30;99.90
22167;DHT22;11249;52.468;13.776;2022-12-01T06:02:23;1.20;99.90
22167;DHT22;11249;52.468;13.776;2022-12-01T06:04:52;1.20;99.90
22167;DHT22;11249;52.468;13.776;2022-12-01T06:07:20;1.20;99.90
22167;DHT22;11249;52.468;13.776;2022-12-01T06:09:48;1.20;99.90
22167;DHT22;11249;52.468;13.776;2022-12-01T06:12:15;1.10;99.90
22167;DHT22;11249;52.468;13.776;2022-12-01T06:14:42;1.20;99.90
22167;DHT22;11249;52.468;13.776;2022-12-01T06:17:08;1.20;99.90
22167;DHT22;11249;52.468;13.776;2022-12-01T06:19:35;1.10;99.90
22167;DHT22;11249;52.468;13.776;2022-12-01T06:22:02;1.10;99.90
22167;DHT22;11249;52.468;13.776;2022-12-01T06:24:29;1.10;99.90
22167;DHT22;11249;52.468;13.776;2022-12-01T06:26:55;1.20;99.90
22167;DHT22;11249;52.468;13.776;2022-12-01T06:29:22;1.20;99.90
22167;DHT22;11249;52.468;13.776;2022-12-01T06:31:49;1.20;99.90
22167;DHT22;11249;52.468;13.776;2022-12-01T06:34:15;1.20;99.90
22167;DHT22;11249;52.468;13.776;2022-12-01T06:36:42;1.10;99.90
22167;DHT22;11249;52.468;13.776;2022-12-01T06:39:09;1.10;99.90
22167;DHT22;11249;52.468;13.776;2022-12-01T06:41:36;1.10;99.90
22167;DHT22;11249;52.468;13.776;2022-12-01T06:44:04;1.10;99.90
22167;DHT22;11249;52.468;13.776;2022-12-01T06:46:30;1.10;99.90
22167;DHT22;11249;52.468;13.776;2022-12-01T06:48:57;1.10;99.90
22167;DHT22;11249;52.468;13.776;2022-12-01T06:51:24;1.20;99.90
22167;DHT22;11249;52.468;13.776;2022-12-01T06:53:54;1.20;99.90
22167;DHT22;11249;52.468;13.776;2022-12-01T06:56:26;1.20;99.90
22167;DHT22;11249;52.468;13.776;2022-12-01T06:58:53;1.10;99.90
22167;DHT22;11249;52.468;13.776;2022-12-01T07:01:20;1.10;99.90
22167;DHT22;11249;52.468;13.776;2022-12-01T07:03:48;1.20;99.90
22167;DHT22;11249;52.468;13.776;2022-12-01T07:06:16;1.00;99.90
22167;DHT22;11249;52.468;13.776;2022-12-01T07:08:43;1.00;99.90
22167;DHT22;11249;52.468;13.776;2022-12-01T07:11:12;1.00;99.90
22167;DHT22;11249;52.468;13.776;2022-12-01T07:13:40;0.90;99.90
22167;DHT22;11249;52.468;13.776;2022-12-01T07:16:08;0.90;99.90
22167;DHT22;11249;52.468;13.776;2022-12-01T07:18:35;1.00;99.90
22167;DHT22;11249;52.468;13.776;2022-12-01T07:21:05;1.00;99.90
22167;DHT22;11249;52.468;13.776;2022-12-01T07:23:33;1.00;99.90
22167;DHT22;11249;52.468;13.776;2022-12-01T07:26:01;1.00;99.90
22167;DHT22;11249;52.468;13.776;2022-12-01T07:28:28;1.10;99.90
22167;DHT22;11249;52.468;13.776;2022-12-01T07:31:05;1.10;99.90
22167;DHT22;11249;52.468;13.776;2022-12-01T07:33:32;1.20;99.90
22167;DHT22;11249;52.468;13.776;2022-12-01T07:35:59;1.20;99.90
22167;DHT22;11249;52.468;13.776;2022-12-01T07:38:29;1.20;99.90
22167;DHT22;11249;52.468;13.776;2022-12-01T07:41:04;1.20;99.90
22167;DHT22;11249;52.468;13.776;2022-12-01T07:43:32;1.20;99.90
22167;DHT22;11249;52.468;13.776;2022-12-01T07:46:13;1.30;99.90
22167;DHT22;11249;52.468;13.776;2022-12-01T07:48:48;1.30;99.90
22167;DHT22;11249;52.468;13.776;2022-12-01T07:51:15;1.20;99.90
22167;DHT22;11249;52.468;13.776;2022-12-01T07:53:43;1.10;99.90
22167;DHT22;11249;52.468;13.776;2022-12-01T07:56:11;1.10;99.90
22167;DHT22;11249;52.468;13.776;2022-12-01T07:58:38;1.00;99.90
22167;DHT22;11249;52.468;13.776;2022-12-01T08:01:10;1.10;99.90
22167;DHT22;11249;52.468;13.776;2022-12-01T08:03:38;1.10;99.90
22167;DHT22;11249;52.468;13.776;2022-12-01T08:06:05;1.20;99.90
22167;DHT22;11249;52.468;13.776;2022-12-01T08:08:34;1.20;99.90
22167;DHT22;11249;52.468;13.776;2022-12-01T08:11:03;1.30;99.90
22167;DHT22;11249;52.468;13.776;2022-12-01T08:13:31;1.30;99.90
22167;DHT22;11249;52.468;13.776;2022-12-01T08:15:57;1.40;99.90
22167;DHT22;11249;52.468;13.776;2022-12-01T08:18:24;1.30;99.90
22167;DHT22;11249;52.468;13.776;2022-12-01T08:20:55;1.30;99.90
22167;DHT22;11249;52.468;13.776;2022-12-01T08:23:22;1.30;99.90
22167;DHT22;11249;52.468;13.776;2022-12-01T08:25:49;1.40;99.90
22167;DHT22;11249;52.468;13.776;2022-12-01T08:28:18;1.40;99.90
22167;DHT22;11249;52.468;13.776;2022-12-01T08:30:45;1.30;99.90
22167;DHT22;11249;52.468;13.776;2022-12-01T08:33:12;1.30;99.90
22167;DHT22;11249;52.468;13.776;2022-12-01T08:35:39;1.30;99.90
22167;DHT22;11249;52.468;13.776;2022-12-01T08:38:06;1.30;99.90
22167;DHT22;11249;52.468;13.776;2022-12-01T08:40:32;1.30;99.90
22167;DHT22;11249;52.468;13.776;2022-12-01T08:42:59;1.20;99.90
22167;DHT22;11249;52.468;13.776;2022-12-01T08:45:26;1.20;99.90
22167;DHT22;11249;52.468;13.776;2022-12-01T08:47:53;1.30;99.90
22167;DHT22;11249;52.468;13.776;2022-12-01T08:50:25;1.40;99.90
22167;DHT22;11249;52.468;13.776;2022-12-01T08:52:52;1.30;99.90
22167;DHT22;11249;52.468;13.776;2022-12-01T08:55:20;1.40;99.90
22167;DHT22;11249;52.468;13.776;2022-12-01T08:57:47;1.30;99.90
22167;DHT22;11249;52.468;13.776;2022-12-01T09:00:14;1.20;99.90
22167;DHT22;11249;52.468;13.776;2022-12-01T09:02:41;1.10;99.90
22167;DHT22;11249;52.468;13.776;2022-12-01T09:05:08;1.20;99.90
22167;DHT22;11249;52.468;13.776;2022-12-01T09:07:35;1.30;99.90
22167;DHT22;11249;52.468;13.776;2022-12-01T09:10:03;1.30;99.90
22167;DHT22;11249;52.468;13.776;2022-12-01T09:12:30;1.40;99.90
22167;DHT22;11249;52.468;13.776;2022-12-01T09:14:56;1.50;99.90
22167;DHT22;11249;52.468;13.776;2022-12-01T09:17:23;1.50;99.90
22167;DHT22;11249;52.468;13.776;2022-12-01T09:19:50;1.40;99.90
22167;DHT22;11249;52.468;13.776;2022-12-01T09:22:17;1.40;99.90
22167;DHT22;11249;52.468;13.776;2022-12-01T09:24:44;1.50;99.90
22167;DHT22;11249;52.468;13.776;2022-12-01T09:27:10;1.50;99.90
22167;DHT22;11249;52.468;13.776;2022-12-01T09:29:38;1.60;99.90
22167;DHT22;11249;52.468;13.776;2022-12-01T09:32:05;1.60;99.90
22167;DHT22;11249;52.468;13.776;2022-12-01T09:34:31;1.60;99.90
22167;DHT22;11249;52.468;13.776;2022-12-01T09:36:58;1.50;99.90
22167;DHT22;11249;52.468;13.776;2022-12-01T09:39:25;1.40;99.90
22167;DHT22;11249;52.468;13.776;2022-12-01T09:41:56;1.50;99.90
22167;DHT22;11249;52.468;13.776;2022-12-01T09:44:27;1.50;99.90
22167;DHT22;11249;52.468;13.776;2022-12-01T09:52:56;1.60;99.90
22167;DHT22;11249;52.468;13.776;2022-12-01T09:55:24;1.50;99.90
22167;DHT22;11249;52.468;13.776;2022-12-01T09:57:54;1.50;99.90
22167;DHT22;11249;52.468;13.776;2022-12-01T10:00:41;1.60;99.90
22167;DHT22;11249;52.468;13.776;2022-12-01T10:05:48;1.60;99.90
22167;DHT22;11249;52.468;13.776;2022-12-01T10:08:41;1.70;99.90
22167;DHT22;11249;52.468;13.776;2022-12-01T10:13:45;1.70;99.90
22167;DHT22;11249;52.468;13.776;2022-12-01T10:16:17;1.80;99.90
22167;DHT22;11249;52.468;13.776;2022-12-01T10:19:02;1.80;99.90
22167;DHT22;11249;52.468;13.776;2022-12-01T10:21:40;1.80;99.90
22167;DHT22;11249;52.468;13.776;2022-12-01T10:24:26;1.70;99.90
22167;DHT22;11249;52.468;13.776;2022-12-01T10:27:19;1.70;99.90
22167;DHT22;11249;52.468;13.776;2022-12-01T10:30:15;1.70;99.90
22167;DHT22;11249;52.468;13.776;2022-12-01T10:32:55;1.80;99.90
22167;DHT22;11249;52.468;13.776;2022-12-01T10:35:25;1.80;99.90
22167;DHT22;11249;52.468;13.776;2022-12-01T10:37:59;1.90;99.90
22167;DHT22;11249;52.468;13.776;2022-12-01T10:40:27;1.90;99.90
22167;DHT22;11249;52.468;13.776;2022-12-01T10:42:54;1.90;99.90
22167;DHT22;11249;52.468;13.776;2022-12-01T10:45:26;1.80;99.90
22167;DHT22;11249;52.468;13.776;2022-12-01T10:48:16;1.90;99.90
22167;DHT22;11249;52.468;13.776;2022-12-01T10:50:51;1.90;99.90
22167;DHT22;11249;52.468;13.776;2022-12-01T10:53:32;1.90;99.90
22167;DHT22;11249;52.468;13.776;2022-12-01T10:56:12;1.90;99.90
22167;DHT22;11249;52.468;13.776;2022-12-01T10:58:44;1.90;99.90
22167;DHT22;11249;52.468;13.776;2022-12-01T11:01:22;2.00;99.90
22167;DHT22;11249;52.468;13.776;2022-12-01T11:03:53;2.00;99.90
22167;DHT22;11249;52.468;13.776;2022-12-01T11:06:23;2.00;99.90
22167;DHT22;11249;52.468;13.776;2022-12-01T11:09:03;2.10;99.90
22167;DHT22;11249;52.468;13.776;2022-12-01T11:11:36;2.10;99.90
22167;DHT22;11249;52.468;13.776;2022-12-01T11:14:15;2.10;99.90
22167;DHT22;11249;52.468;13.776;2022-12-01T11:16:45;2.10;99.90
22167;DHT22;11249;52.468;13.776;2022-12-01T11:19:33;2.10;99.90
22167;DHT22;11249;52.468;13.776;2022-12-01T11:22:16;2.10;99.90
22167;DHT22;11249;52.468;13.776;2022-12-01T11:28:05;2.10;99.90
22167;DHT22;11249;52.468;13.776;2022-12-01T11:30:24;2.10;99.90
22167;DHT22;11249;52.468;13.776;2022-12-01T11:33:02;1.90;99.90
22167;DHT22;11249;52.468;13.776;2022-12-01T11:35:32;1.80;99.90
22167;DHT22;11249;52.468;13.776;2022-12-01T11:38:03;1.80;99.90
22167;DHT22;11249;52.468;13.776;2022-12-01T11:40:52;1.80;99.90
22167;DHT22;11249;52.468;13.776;2022-12-01T11:45:54;1.70;99.90
22167;DHT22;11249;52.468;13.776;2022-12-01T11:48:26;1.70;99.90
22167;DHT22;11249;52.468;13.776;2022-12-01T11:51:47;1.70;99.90
22167;DHT22;11249;52.468;13.776;2022-12-01T11:56:48;1.90;99.90
22167;DHT22;11249;52.468;13.776;2022-12-01T11:59:35;1.90;99.90
22167;DHT22;11249;52.468;13.776;2022-12-01T12:02:30;1.90;99.90
22167;DHT22;11249;52.468;13.776;2022-12-01T12:05:14;1.90;99.90
22167;DHT22;11249;52.468;13.776;2022-12-01T12:08:17;2.00;99.90
22167;DHT22;11249;52.468;13.776;2022-12-01T12:16:33;2.10;99.90
22167;DHT22;11249;52.468;13.776;2022-12-01T12:19:25;2.20;99.90
22167;DHT22;11249;52.468;13.776;2022-12-01T12:22:40;2.30;99.90
22167;DHT22;11249;52.468;13.776;2022-12-01T12:25:27;2.30;99.90
22167;DHT22;11249;52.468;13.776;2022-12-01T12:33:55;2.30;99.90
22167;DHT22;11249;52.468;13.776;2022-12-01T12:36:45;2.30;99.90
22167;DHT22;11249;52.468;13.776;2022-12-01T12:53:16;2.10;99.90
22167;DHT22;11249;52.468;13.776;2022-12-01T12:55:48;2.10;99.90
22167;DHT22;11249;52.468;13.776;2022-12-01T12:58:22;2.10;99.90
22167;DHT22;11249;52.468;13.776;2022-12-01T13:01:08;2.20;99.90
22167;DHT22;11249;52.468;13.776;2022-12-01T13:03:54;2.20;99.90
22167;DHT22;11249;52.468;13.776;2022-12-01T13:06:51;2.30;99.90
22167;DHT22;11249;52.468;13.776;2022-12-01T13:09:26;2.30;99.90
22167;DHT22;11249;52.468;13.776;2022-12-01T13:12:11;2.40;99.90
22167;DHT22;11249;52.468;13.776;2022-12-01T13:14:51;2.30;99.90
22167;DHT22;11249;52.468;13.776;2022-12-01T13:17:36;2.30;99.90
22167;DHT22;11249;52.468;13.776;2022-12-01T13:20:05;2.30;99.90
22167;DHT22;11249;52.468;13.776;2022-12-01T13:22:33;2.40;99.90
22167;DHT22;11249;52.468;13.776;2022-12-01T13:25:02;2.40;99.90
22167;DHT22;11249;52.468;13.776;2022-12-01T13:27:33;2.40;99.90
22167;DHT22;11249;52.468;13.776;2022-12-01T13:30:01;2.50;99.90
22167;DHT22;11249;52.468;13.776;2022-12-01T13:32:35;2.40;99.90
22167;DHT22;11249;52.468;13.776;2022-12-01T13:35:06;2.40;99.90
22167;DHT22;11249;52.468;13.776;2022-12-01T13:37:35;2.40;99.90
22167;DHT22;11249;52.468;13.776;2022-12-01T13:43:03;2.50;99.90
22167;DHT22;11249;52.468;13.776;2022-12-01T13:45:37;2.50;99.90
22167;DHT22;11249;52.468;13.776;2022-12-01T13:48:24;2.50;99.90
22167;DHT22;11249;52.468;13.776;2022-12-01T13:51:01;2.40;99.90
22167;DHT22;11249;52.468;13.776;2022-12-01T13:53:35;2.40;99.90
22167;DHT22;11249;52.468;13.776;2022-12-01T14:06:39;2.20;99.90
22167;DHT22;11249;52.468;13.776;2022-12-01T14:14:44;2.30;99.90
22167;DHT22;11249;52.468;13.776;2022-12-01T14:17:32;2.30;99.90
22167;DHT22;11249;52.468;13.776;2022-12-01T14:20:06;2.30;99.90
22167;DHT22;11249;52.468;13.776;2022-12-01T14:22:44;2.30;99.90
22167;DHT22;11249;52.468;13.776;2022-12-01T14:27:53;2.10;99.90
22167;DHT22;11249;52.468;13.776;2022-12-01T14:47:05;2.00;99.90
22167;DHT22;11249;52.468;13.776;2022-12-01T14:52:33;2.00;99.90
22167;DHT22;11249;52.468;13.776;2022-12-01T14:55:05;2.00;99.90
22167;DHT22;11249;52.468;13.776;2022-12-01T14:57:37;2.00;99.90
22167;DHT22;11249;52.468;13.776;2022-12-01T15:02:45;1.90;99.90
22167;DHT22;11249;52.468;13.776;2022-12-01T15:05:17;1.80;99.90
22167;DHT22;11249;52.468;13.776;2022-12-01T15:07:48;1.90;99.90
22167;DHT22;11249;52.468;13.776;2022-12-01T15:10:21;1.90;99.90
22167;DHT22;11249;52.468;13.776;2022-12-01T15:12:49;1.90;99.90
22167;DHT22;11249;52.468;13.776;2022-12-01T15:17:51;1.90;99.90
22167;DHT22;11249;52.468;13.776;2022-12-01T15:20:35;1.90;99.90
22167;DHT22;11249;52.468;13.776;2022-12-01T15:23:14;1.90;99.90
22167;DHT22;11249;52.468;13.776;2022-12-01T15:25:43;1.90;99.90
22167;DHT22;11249;52.468;13.776;2022-12-01T15:28:19;1.90;99.90
22167;DHT22;11249;52.468;13.776;2022-12-01T15:30:52;1.80;99.90
22167;DHT22;11249;52.468;13.776;2022-12-01T15:33:20;1.90;99.90
22167;DHT22;11249;52.468;13.776;2022-12-01T15:35:54;1.80;99.90
22167;DHT22;11249;52.468;13.776;2022-12-01T15:38:24;1.80;99.90
22167;DHT22;11249;52.468;13.776;2022-12-01T15:40:54;1.80;99.90
22167;DHT22;11249;52.468;13.776;2022-12-01T15:43:41;1.70;99.90
22167;DHT22;11249;52.468;13.776;2022-12-01T15:46:14;1.70;99.90
22167;DHT22;11249;52.468;13.776;2022-12-01T15:48:41;1.70;99.90
22167;DHT22;11249;52.468;13.776;2022-12-01T15:51:17;1.70;99.90
22167;DHT22;11249;52.468;13.776;2022-12-01T15:53:48;1.70;99.90
22167;DHT22;11249;52.468;13.776;2022-12-01T15:56:25;1.70;99.90
22167;DHT22;11249;52.468;13.776;2022-12-01T15:59:02;1.60;99.90
22167;DHT22;11249;52.468;13.776;2022-12-01T16:01:33;1.60;99.90
22167;DHT22;11249;52.468;13.776;2022-12-01T16:04:03;1.50;99.90
22167;DHT22;11249;52.468;13.776;2022-12-01T16:06:33;1.50;99.90
22167;DHT22;11249;52.468;13.776;2022-12-01T16:09:06;1.60;99.90
22167;DHT22;11249;52.468;13.776;2022-12-01T16:14:35;1.60;99.90
22167;DHT22;11249;52.468;13.776;2022-12-01T16:17:03;1.60;99.90
22167;DHT22;11249;52.468;13.776;2022-12-01T16:19:31;1.60;99.90
22167;DHT22;11249;52.468;13.776;2022-12-01T16:24:47;1.50;99.90
22167;DHT22;11249;52.468;13.776;2022-12-01T16:27:23;1.60;99.90
22167;DHT22;11249;52.468;13.776;2022-12-01T16:29:54;1.50;99.90
22167;DHT22;11249;52.468;13.776;2022-12-01T16:32:25;1.50;99.90
22167;DHT22;11249;52.468;13.776;2022-12-01T16:34:53;1.50;99.90
22167;DHT22;11249;52.468;13.776;2022-12-01T16:37:19;1.50;99.90
22167;DHT22;11249;52.468;13.776;2022-12-01T16:39:47;1.50;99.90
22167;DHT22;11249;52.468;13.776;2022-12-01T16:42:16;1.50;99.90
22167;DHT22;11249;52.468;13.776;2022-12-01T16:44:43;1.50;99.90
22167;DHT22;11249;52.468;13.776;2022-12-01T16:47:30;1.60;99.90
22167;DHT22;11249;52.468;13.776;2022-12-01T16:49:57;1.50;99.90
22167;DHT22;11249;52.468;13.776;2022-12-01T16:52:24;1.60;99.90
22167;DHT22;11249;52.468;13.776;2022-12-01T16:55:32;1.60;99.90
22167;DHT22;11249;52.468;13.776;2022-12-01T16:58:00;1.60;99.90
22167;DHT22;11249;52.468;13.776;2022-12-01T17:00:27;1.70;99.90
22167;DHT22;11249;52.468;13.776;2022-12-01T17:02:55;1.70;99.90
22167;DHT22;11249;52.468;13.776;2022-12-01T17:05:22;1.70;99.90
22167;DHT22;11249;52.468;13.776;2022-12-01T17:07:49;1.70;99.90
22167;DHT22;11249;52.468;13.776;2022-12-01T17:10:16;1.70;99.90
22167;DHT22;11249;52.468;13.776;2022-12-01T17:12:43;1.70;99.90
22167;DHT22;11249;52.468;13.776;2022-12-01T17:15:10;1.70;99.90
22167;DHT22;11249;52.468;13.776;2022-12-01T17:17:37;1.70;99.90
22167;DHT22;11249;52.468;13.776;2022-12-01T17:20:05;1.70;99.90
22167;DHT22;11249;52.468;13.776;2022-12-01T17:22:32;1.60;99.90
22167;DHT22;11249;52.468;13.776;2022-12-01T17:24:59;1.70;99.90
22167;DHT22;11249;52.468;13.776;2022-12-01T17:27:28;1.70;99.90
22167;DHT22;11249;52.468;13.776;2022-12-01T17:29:58;1.60;99.90
22167;DHT22;11249;52.468;13.776;2022-12-01T17:32:25;1.60;99.90
22167;DHT22;11249;52.468;13.776;2022-12-01T17:34:52;1.60;99.90
22167;DHT22;11249;52.468;13.776;2022-12-01T17:37:19;1.70;99.90
22167;DHT22;11249;52.468;13.776;2022-12-01T17:39:47;1.70;99.90
22167;DHT22;11249;52.468;13.776;2022-12-01T17:42:13;1.70;99.90
22167;DHT22;11249;52.468;13.776;2022-12-01T17:44:40;1.70;99.90
22167;DHT22;11249;52.468;13.776;2022-12-01T17:47:07;1.70;99.90
22167;DHT22;11249;52.468;13.776;2022-12-01T17:49:34;1.60;99.90
22167;DHT22;11249;52.468;13.776;2022-12-01T17:52:03;1.60;99.90
22167;DHT22;11249;52.468;13.776;2022-12-01T17:54:30;1.70;99.90
22167;DHT22;11249;52.468;13.776;2022-12-01T17:56:56;1.60;99.90